Time;durP1;ratioP1;P1;durP2;ratioP2;P2;SDS_P1;SDS_P2;PMS_P1;PMS_P2;Temp;Humidity;BMP_temperature;BMP_pressure;BME280_temperature;BME280_humidity;BME280_pressure;Samples;Min_cycle;Max_cycle;Signal;HPM_P1;HPM_P2
2022/11/02 00:00:45;;;;;;;16.20;2.13;;;11.90;99.90;;;;;;4985839;28;20022;-76
2022/11/02 00:03:10;;;;;;;8.30;2.05;;;11.90;99.90;;;;;;4985876;28;20050;-71
2022/11/02 00:05:36;;;;;;;16.48;1.92;;;11.90;99.90;;;;;;4985226;28;20034;-76
2022/11/02 00:08:01;;;;;;;11.00;2.15;;;12.00;99.90;;;;;;4985791;28;20084;-77
2022/11/02 00:10:28;;;;;;;12.77;2.63;;;12.00;99.90;;;;;;4985651;28;20033;-77
2022/11/02 00:12:54;;;;;;;7.53;1.98;;;11.90;99.90;;;;;;4984354;28;20038;-77
2022/11/02 00:15:22;;;;;;;11.30;2.35;;;11.90;99.90;;;;;;4967666;28;20512;-77
2022/11/02 00:17:52;;;;;;;14.32;2.13;;;12.00;99.90;;;;;;4967878;28;20378;-77
2022/11/02 00:20:19;;;;;;;9.50;2.20;;;12.00;99.90;;;;;;4967945;28;20031;-72
2022/11/02 00:22:47;;;;;;;13.10;2.42;;;12.00;99.90;;;;;;4968043;28;20030;-71
2022/11/02 00:25:16;;;;;;;18.17;2.60;;;12.00;99.90;;;;;;4985092;28;20023;-73
2022/11/02 00:27:42;;;;;;;7.55;1.90;;;12.00;99.90;;;;;;4983945;28;20084;-71
2022/11/02 00:30:09;;;;;;;15.13;2.28;;;12.00;99.90;;;;;;4985122;28;20030;-73
2022/11/02 00:32:35;;;;;;;7.40;2.10;;;11.90;99.90;;;;;;4985216;28;20100;-76
2022/11/02 00:35:00;;;;;;;9.60;2.20;;;12.00;99.90;;;;;;4984140;28;20067;-71
2022/11/02 00:37:26;;;;;;;6.13;2.08;;;12.00;99.90;;;;;;4967938;28;20495;-80
2022/11/02 00:39:52;;;;;;;11.40;2.20;;;12.00;99.90;;;;;;4967583;28;20031;-78
2022/11/02 00:42:17;;;;;;;11.30;2.13;;;12.00;99.90;;;;;;4985156;28;20027;-77
2022/11/02 00:44:43;;;;;;;11.20;2.30;;;12.00;99.90;;;;;;4967552;28;20110;-75
2022/11/02 00:47:10;;;;;;;5.90;1.73;;;12.00;99.90;;;;;;4984775;28;20062;-72
2022/11/02 00:49:36;;;;;;;12.85;2.58;;;12.00;99.90;;;;;;4985118;28;20099;-76
2022/11/02 00:52:02;;;;;;;8.52;2.13;;;12.00;99.90;;;;;;4985129;28;20031;-76
2022/11/02 00:54:28;;;;;;;12.27;2.13;;;12.00;99.90;;;;;;4967278;28;20082;-74
2022/11/02 00:56:54;;;;;;;12.50;2.47;;;12.10;99.90;;;;;;4984682;28;20471;-80
2022/11/02 00:59:19;;;;;;;17.65;2.40;;;12.10;99.90;;;;;;4984280;28;20508;-76
2022/11/02 01:01:46;;;;;;;7.57;1.92;;;12.10;99.90;;;;;;4967239;28;20027;-72
2022/11/02 01:04:16;;;;;;;11.02;1.67;;;12.10;99.90;;;;;;4986092;28;20023;-74
2022/11/02 01:06:44;;;;;;;10.68;2.40;;;12.10;99.90;;;;;;4971383;28;20030;-75
2022/11/02 01:09:10;;;;;;;10.00;1.80;;;12.20;99.90;;;;;;4971238;28;20034;-74
2022/11/02 01:11:36;;;;;;;15.70;2.33;;;12.20;99.90;;;;;;4988885;28;20018;-73
2022/11/02 01:14:02;;;;;;;18.17;2.50;;;12.20;99.90;;;;;;4971268;28;20038;-75
2022/11/02 01:16:28;;;;;;;17.38;2.28;;;12.30;99.90;;;;;;4989168;28;20027;-74
2022/11/02 01:18:55;;;;;;;10.13;2.20;;;12.30;99.90;;;;;;4988913;28;20028;-74
2022/11/02 01:21:21;;;;;;;10.38;2.10;;;12.30;99.90;;;;;;4988105;28;20022;-72
2022/11/02 01:23:47;;;;;;;10.05;2.08;;;12.30;99.90;;;;;;4988488;28;20031;-72
2022/11/02 01:26:13;;;;;;;12.25;2.42;;;12.30;99.90;;;;;;4988651;28;20087;-73
2022/11/02 01:28:39;;;;;;;16.25;1.83;;;12.30;99.90;;;;;;4988085;28;20464;-75
2022/11/02 01:31:06;;;;;;;7.57;1.40;;;12.30;99.90;;;;;;4988600;28;20027;-71
2022/11/02 01:33:32;;;;;;;10.13;2.00;;;12.30;99.90;;;;;;4988634;28;20027;-71
2022/11/02 01:36:01;;;;;;;12.50;2.20;;;12.10;99.90;;;;;;4988288;28;20039;-71
2022/11/02 01:38:26;;;;;;;9.82;2.35;;;12.30;99.90;;;;;;4988620;28;20038;-74
2022/11/02 01:40:52;;;;;;;18.55;2.47;;;12.20;99.90;;;;;;4970750;28;20027;-75
2022/11/02 01:43:18;;;;;;;24.85;2.35;;;12.20;99.90;;;;;;4987950;28;20031;-74
2022/11/02 01:45:45;;;;;;;15.30;2.42;;;12.10;99.90;;;;;;4988307;28;20027;-73
2022/11/02 01:48:10;;;;;;;12.52;2.30;;;12.00;99.90;;;;;;4988191;28;20038;-79
2022/11/02 01:50:36;;;;;;;10.98;2.38;;;11.90;99.90;;;;;;4986679;28;20023;-78
2022/11/02 01:53:02;;;;;;;14.45;2.35;;;11.80;99.90;;;;;;4971151;28;20054;-76
2022/11/02 01:55:30;;;;;;;14.88;2.55;;;11.70;99.90;;;;;;4987229;28;20034;-73
2022/11/02 01:58:05;;;;;;;9.82;2.38;;;11.60;99.90;;;;;;4981124;28;20042;-77
2022/11/02 02:00:30;;;;;;;14.38;2.67;;;11.60;99.90;;;;;;4969014;29;20035;-73
2022/11/02 02:03:11;;;;;;;11.32;2.13;;;11.50;99.90;;;;;;4968455;28;20047;-77
2022/11/02 02:05:44;;;;;;;12.18;2.05;;;11.50;99.90;;;;;;4967234;28;20123;-77
2022/11/02 02:08:12;;;;;;;13.07;2.53;;;11.50;99.90;;;;;;4969025;28;20028;-72
2022/11/02 02:10:38;;;;;;;19.52;2.50;;;11.60;99.90;;;;;;4968390;29;20024;-74
2022/11/02 02:13:05;;;;;;;9.02;1.83;;;11.50;99.90;;;;;;4968802;28;20066;-79
2022/11/02 02:15:47;;;;;;;9.57;2.05;;;11.60;99.90;;;;;;4968127;28;20039;-73
2022/11/02 02:18:27;;;;;;;6.57;1.92;;;11.60;99.90;;;;;;4966766;29;20388;-72
2022/11/02 02:20:53;;;;;;;14.90;2.40;;;11.60;99.90;;;;;;4968283;29;20380;-73
2022/11/02 02:23:37;;;;;;;10.38;1.83;;;11.60;99.90;;;;;;4968142;29;20082;-73
2022/11/02 02:26:28;;;;;;;6.80;1.83;;;11.60;99.90;;;;;;4967052;28;20031;-73
2022/11/02 02:29:04;;;;;;;14.13;2.40;;;11.60;99.90;;;;;;4968011;29;20023;-75
2022/11/02 02:31:59;;;;;;;13.80;2.10;;;11.60;99.90;;;;;;4950653;29;20031;-76
2022/11/02 02:34:48;;;;;;;16.83;2.78;;;11.60;99.90;;;;;;4968185;29;20102;-74
2022/11/02 02:37:20;;;;;;;10.55;2.28;;;11.60;99.90;;;;;;4967910;29;20031;-76
2022/11/02 02:39:58;;;;;;;13.05;1.83;;;11.60;99.90;;;;;;4967817;29;20027;-75
2022/11/02 02:42:52;;;;;;;14.85;2.42;;;11.60;99.90;;;;;;4968139;29;20027;-72
2022/11/02 02:45:36;;;;;;;16.40;2.08;;;11.60;99.90;;;;;;4950229;29;20118;-73
2022/11/02 02:48:23;;;;;;;8.93;2.13;;;11.60;99.90;;;;;;4966699;29;20035;-76
2022/11/02 02:50:50;;;;;;;29.88;2.60;;;11.60;99.90;;;;;;4967363;29;20066;-73
2022/11/02 02:53:21;;;;;;;13.63;2.05;;;11.60;99.90;;;;;;4967453;29;20495;-75
2022/11/02 02:55:49;;;;;;;7.60;1.75;;;11.60;99.90;;;;;;4967217;29;20043;-73
2022/11/02 02:58:20;;;;;;;12.18;2.65;;;11.60;99.90;;;;;;4967062;28;20055;-77
2022/11/02 03:00:45;;;;;;;8.57;2.03;;;11.60;99.90;;;;;;4950143;29;20031;-75
2022/11/02 03:03:17;;;;;;;12.73;2.22;;;11.60;99.90;;;;;;4950346;29;20070;-72
2022/11/02 03:05:54;;;;;;;13.27;1.98;;;11.60;99.90;;;;;;4967393;29;20027;-77
2022/11/02 03:08:20;;;;;;;18.73;2.25;;;11.60;99.90;;;;;;4967529;29;20621;-70
2022/11/02 03:10:47;;;;;;;14.98;2.03;;;11.60;99.90;;;;;;4967388;29;20051;-75
2022/11/02 03:13:38;;;;;;;15.25;2.42;;;11.60;99.90;;;;;;4966863;29;20027;-71
2022/11/02 03:16:29;;;;;;;10.98;2.75;;;11.60;99.90;;;;;;4966539;28;20058;-80
2022/11/02 03:19:13;;;;;;;10.50;2.03;;;11.70;99.90;;;;;;4967257;29;20039;-75
2022/11/02 03:21:41;;;;;;;13.55;2.35;;;11.70;99.90;;;;;;4967042;29;20058;-74
2022/11/02 03:24:24;;;;;;;10.48;2.50;;;11.70;99.90;;;;;;4967241;28;20031;-74
2022/11/02 03:27:18;;;;;;;9.18;1.73;;;11.70;99.90;;;;;;4966795;28;20038;-76
2022/11/02 03:29:47;;;;;;;16.30;2.27;;;11.60;99.90;;;;;;4966553;29;20027;-73
2022/11/02 03:32:23;;;;;;;10.55;2.40;;;11.60;99.90;;;;;;4965621;29;20519;-70
2022/11/02 03:34:56;;;;;;;12.70;2.35;;;11.60;99.90;;;;;;4965373;28;20039;-74
2022/11/02 03:37:40;;;;;;;14.55;2.65;;;11.70;99.90;;;;;;4967228;29;20051;-71
2022/11/02 03:40:24;;;;;;;17.45;3.00;;;11.60;99.90;;;;;;4966762;29;20495;-75
2022/11/02 03:42:52;;;;;;;18.00;2.35;;;11.60;99.90;;;;;;4966797;29;20031;-74
2022/11/02 03:45:25;;;;;;;11.70;1.85;;;11.60;99.90;;;;;;4966791;29;20067;-74
2022/11/02 03:47:55;;;;;;;16.85;2.55;;;11.60;99.90;;;;;;4966417;29;20035;-78
2022/11/02 03:50:22;;;;;;;15.80;2.05;;;11.60;99.90;;;;;;4966615;29;20031;-77
2022/11/02 03:52:56;;;;;;;12.25;2.03;;;11.60;99.90;;;;;;4966614;29;20050;-78
2022/11/02 03:55:29;;;;;;;19.80;1.95;;;11.60;99.90;;;;;;4965750;29;20043;-71
2022/11/02 03:57:55;;;;;;;10.98;2.15;;;11.70;99.90;;;;;;4966381;29;20043;-78
2022/11/02 04:00:24;;;;;;;5.90;1.75;;;11.70;99.90;;;;;;4949167;29;20032;-70
2022/11/02 04:02:55;;;;;;;11.00;2.33;;;11.80;99.90;;;;;;4965990;28;20027;-75
2022/11/02 04:05:30;;;;;;;9.73;1.92;;;11.90;99.90;;;;;;4966444;29;20031;-77
2022/11/02 04:14:36;;;;;;;20.27;2.67;;;12.10;99.90;;;;;;4966649;29;20108;-80
2022/11/02 04:16:10;;;;;;;11.48;2.30;;;12.20;99.90;;;;;;4966289;29;20123;-82
2022/11/02 04:21:20;;;;;;;12.48;2.13;;;12.10;99.90;;;;;;4966277;29;20058;-75
2022/11/02 04:26:30;;;;;;;11.82;2.42;;;12.00;99.90;;;;;;4966699;29;20062;-80
2022/11/02 04:28:56;;;;;;;12.60;2.15;;;12.00;99.90;;;;;;4965887;28;20027;-80
2022/11/02 04:31:21;;;;;;;14.52;3.08;;;12.10;99.90;;;;;;4965654;29;20035;-79
2022/11/02 04:33:47;;;;;;;11.40;3.28;;;12.00;99.90;;;;;;4948759;29;20038;-77
2022/11/02 04:36:12;;;;;;;8.82;2.40;;;12.00;99.90;;;;;;4965341;29;20472;-72
2022/11/02 04:38:41;;;;;;;11.35;3.55;;;11.90;99.90;;;;;;4964394;28;20181;-75
2022/11/02 04:43:55;;;;;;;12.93;3.15;;;11.90;99.90;;;;;;4965814;29;20043;-76
2022/11/02 04:46:23;;;;;;;14.93;2.42;;;11.90;99.90;;;;;;4948791;29;20023;-70
2022/11/02 04:48:49;;;;;;;15.07;3.05;;;11.80;99.90;;;;;;4965592;28;20450;-71
2022/11/02 04:51:15;;;;;;;13.18;2.97;;;11.80;99.90;;;;;;4965678;28;20027;-75
2022/11/02 04:53:41;;;;;;;11.82;3.67;;;11.80;99.90;;;;;;4948353;29;20034;-79
2022/11/02 04:56:07;;;;;;;19.10;3.40;;;11.80;99.90;;;;;;4948073;29;20066;-77
2022/11/02 04:58:34;;;;;;;11.52;3.58;;;11.90;99.90;;;;;;4948421;29;20074;-79
2022/11/02 05:01:07;;;;;;;11.10;3.47;;;11.90;99.90;;;;;;4965856;29;20027;-75
2022/11/02 05:03:33;;;;;;;8.27;2.40;;;11.90;99.90;;;;;;4947990;29;20042;-73
2022/11/02 05:05:59;;;;;;;10.27;2.47;;;11.90;99.90;;;;;;4964623;28;20034;-77
2022/11/02 05:08:24;;;;;;;13.43;4.20;;;11.90;99.90;;;;;;4965816;29;20768;-72
2022/11/02 05:10:54;;;;;;;6.00;2.17;;;11.90;99.90;;;;;;4964034;28;20499;-77
2022/11/02 05:13:19;;;;;;;6.75;1.80;;;11.90;99.90;;;;;;4948473;29;20031;-80
2022/11/02 05:15:45;;;;;;;5.18;1.33;;;11.90;99.90;;;;;;4947305;29;20090;-76
2022/11/02 05:18:11;;;;;;;7.32;1.40;;;11.90;99.90;;;;;;4965557;29;20027;-80
2022/11/02 05:20:36;;;;;;;4.40;1.45;;;11.90;99.90;;;;;;4948668;29;20031;-81
2022/11/02 05:23:02;;;;;;;1.67;0.95;;;11.90;99.90;;;;;;4965433;29;20042;-76
2022/11/02 05:25:28;;;;;;;5.05;1.08;;;11.80;99.90;;;;;;4964294;29;20023;-77
2022/11/02 05:27:56;;;;;;;4.90;1.20;;;11.80;99.90;;;;;;4957907;28;20095;-82
2022/11/02 05:30:21;;;;;;;4.45;1.17;;;11.70;99.90;;;;;;4964145;28;20023;-76
2022/11/02 05:32:47;;;;;;;7.18;1.55;;;11.70;99.90;;;;;;4983175;28;20045;-77
2022/11/02 05:35:13;;;;;;;7.10;1.42;;;11.70;99.90;;;;;;4967390;28;20049;-78
2022/11/02 05:37:38;;;;;;;3.35;1.20;;;11.70;99.90;;;;;;4966944;28;20043;-76
2022/11/02 05:40:05;;;;;;;8.85;1.30;;;11.60;99.90;;;;;;4981867;28;20050;-77
2022/11/02 05:42:30;;;;;;;6.38;1.25;;;11.60;99.90;;;;;;4984856;28;20430;-76
2022/11/02 05:44:56;;;;;;;8.25;1.38;;;11.60;99.90;;;;;;4984444;28;20027;-79
2022/11/02 05:47:22;;;;;;;6.32;1.20;;;11.60;99.90;;;;;;4983167;28;20035;-81
2022/11/02 05:49:48;;;;;;;3.70;1.30;;;11.60;99.90;;;;;;4983653;28;20031;-80
2022/11/02 05:52:14;;;;;;;7.70;1.65;;;11.50;99.90;;;;;;4986856;28;20471;-84
2022/11/02 05:54:39;;;;;;;6.13;1.50;;;11.50;99.90;;;;;;4987839;28;20042;-77
2022/11/02 05:57:05;;;;;;;3.15;1.42;;;11.50;99.90;;;;;;4988577;28;20037;-78
2022/11/02 05:59:31;;;;;;;7.35;2.03;;;11.40;99.90;;;;;;4987903;28;20047;-84
2022/11/02 06:01:57;;;;;;;4.95;1.83;;;11.40;99.90;;;;;;4987186;28;20045;-82
2022/11/02 06:04:22;;;;;;;5.35;1.60;;;11.40;99.90;;;;;;4986896;28;20031;-79
2022/11/02 06:06:48;;;;;;;7.97;3.05;;;11.30;99.90;;;;;;4987800;28;20038;-72
2022/11/02 06:09:14;;;;;;;13.18;3.13;;;11.30;99.90;;;;;;4986593;28;20034;-77
2022/11/02 06:11:39;;;;;;;6.47;3.20;;;11.20;99.90;;;;;;4985847;28;20041;-79
2022/11/02 06:14:05;;;;;;;8.05;3.50;;;11.20;99.90;;;;;;4985947;28;20034;-76
2022/11/02 06:16:33;;;;;;;11.25;3.15;;;11.20;99.90;;;;;;4988084;28;20621;-81
2022/11/02 06:18:59;;;;;;;8.50;2.70;;;11.10;99.90;;;;;;4987900;28;20034;-80
2022/11/02 06:21:24;;;;;;;10.63;2.88;;;11.10;99.90;;;;;;4987130;28;20034;-74
2022/11/02 06:23:50;;;;;;;10.10;2.95;;;11.10;99.90;;;;;;4970529;28;20035;-78
2022/11/02 06:26:16;;;;;;;10.60;3.30;;;11.00;99.90;;;;;;4970018;28;20042;-79
2022/11/02 06:28:41;;;;;;;15.63;3.00;;;11.00;99.90;;;;;;4971364;28;20174;-82
2022/11/02 06:31:07;;;;;;;10.90;3.10;;;11.00;99.90;;;;;;4967753;28;20031;-81
2022/11/02 06:33:33;;;;;;;10.85;2.92;;;11.00;99.90;;;;;;4950709;29;20043;-83
2022/11/02 06:35:59;;;;;;;11.05;3.25;;;10.90;99.90;;;;;;4951979;28;20155;-79
2022/11/02 06:38:25;;;;;;;24.23;3.28;;;11.00;99.90;;;;;;4981021;28;20106;-76
2022/11/02 06:40:59;;;;;;;16.45;2.85;;;11.00;99.90;;;;;;4957880;28;20032;-83
2022/11/02 06:43:25;;;;;;;17.30;2.95;;;11.00;99.90;;;;;;4961959;28;20042;-79
2022/11/02 06:45:55;;;;;;;14.55;3.13;;;11.00;99.90;;;;;;4968438;28;20137;-81
2022/11/02 06:48:20;;;;;;;10.93;2.50;;;11.10;99.90;;;;;;4979971;28;20095;-74
2022/11/02 06:50:46;;;;;;;14.77;2.63;;;11.10;99.90;;;;;;4965959;28;20042;-81
2022/11/02 06:53:12;;;;;;;11.18;3.08;;;11.20;99.90;;;;;;4966058;28;20036;-76
2022/11/02 06:55:38;;;;;;;9.90;2.28;;;11.20;99.90;;;;;;4985151;28;20090;-77
2022/11/02 06:58:06;;;;;;;12.68;2.40;;;11.30;99.90;;;;;;4982448;28;20037;-77
2022/11/02 07:00:32;;;;;;;9.93;2.53;;;11.30;99.90;;;;;;4973440;28;20042;-78
2022/11/02 07:03:02;;;;;;;11.65;2.60;;;11.40;99.90;;;;;;4966116;28;20039;-79
2022/11/02 07:05:49;;;;;;;9.43;1.77;;;11.50;99.90;;;;;;4967570;29;20037;-77
2022/11/02 07:08:14;;;;;;;7.85;1.73;;;11.50;99.90;;;;;;4947764;29;20036;-76
2022/11/02 07:10:39;;;;;;;11.23;1.88;;;11.70;99.90;;;;;;4930765;29;20362;-75
2022/11/02 07:13:05;;;;;;;12.98;2.60;;;11.70;99.90;;;;;;4963914;28;20045;-73
2022/11/02 07:15:31;;;;;;;8.90;2.25;;;11.90;99.90;;;;;;4975121;28;20062;-80
2022/11/02 07:17:56;;;;;;;23.42;2.97;;;11.90;99.90;;;;;;4965400;29;20035;-75
2022/11/02 07:20:22;;;;;;;11.82;2.47;;;12.10;99.90;;;;;;4966421;29;20026;-71
2022/11/02 07:22:59;;;;;;;11.27;2.28;;;12.10;99.90;;;;;;4964679;28;20415;-77
2022/11/02 07:25:26;;;;;;;16.52;2.00;;;12.20;99.90;;;;;;4970138;28;20042;-72
2022/11/02 07:28:02;;;;;;;8.63;1.70;;;12.20;99.90;;;;;;4971751;28;20543;-73
2022/11/02 07:30:29;;;;;;;9.70;1.85;;;12.20;99.90;;;;;;4951382;28;20035;-76
2022/11/02 07:32:55;;;;;;;12.00;2.22;;;12.20;99.90;;;;;;4964587;28;20073;-76
2022/11/02 07:35:20;;;;;;;14.82;2.08;;;12.30;99.90;;;;;;4972019;28;20733;-75
2022/11/02 07:38:06;;;;;;;10.57;1.90;;;12.30;99.90;;;;;;4954996;29;20027;-75
2022/11/02 07:40:34;;;;;;;12.45;1.85;;;12.40;99.90;;;;;;4972186;28;20039;-69
2022/11/02 07:43:00;;;;;;;17.25;2.58;;;12.50;99.90;;;;;;4968025;28;20031;-77
2022/11/02 07:45:28;;;;;;;17.60;1.90;;;12.50;99.90;;;;;;4952629;28;20038;-77
2022/11/02 07:47:54;;;;;;;9.82;2.30;;;12.50;99.90;;;;;;4944891;28;20055;-72
2022/11/02 07:50:21;;;;;;;15.57;2.40;;;12.40;99.90;;;;;;4984696;28;20026;-75
2022/11/02 07:52:49;;;;;;;13.30;2.10;;;12.50;99.90;;;;;;4973106;28;20487;-74
2022/11/02 07:55:17;;;;;;;17.20;2.38;;;12.60;99.90;;;;;;4982240;28;20062;-77
2022/11/02 07:57:43;;;;;;;12.50;2.28;;;12.70;99.90;;;;;;4951847;28;20145;-74
2022/11/02 08:00:11;;;;;;;7.97;2.13;;;12.70;99.90;;;;;;4982443;28;20126;-73
2022/11/02 08:02:38;;;;;;;12.82;2.28;;;12.70;99.90;;;;;;4984890;28;20058;-76
2022/11/02 08:05:04;;;;;;;17.25;2.70;;;12.60;99.90;;;;;;4984747;28;20027;-77
2022/11/02 08:07:29;;;;;;;13.02;1.85;;;12.60;99.90;;;;;;4965777;28;20069;-77
2022/11/02 08:09:55;;;;;;;8.43;1.85;;;12.50;99.90;;;;;;4982658;28;20047;-77
2022/11/02 08:12:21;;;;;;;12.82;2.40;;;12.60;99.90;;;;;;4985347;28;20397;-75
2022/11/02 08:14:46;;;;;;;11.88;1.88;;;12.60;99.90;;;;;;4983517;28;20136;-79
2022/11/02 08:17:12;;;;;;;11.73;2.15;;;12.70;99.90;;;;;;4967214;28;20094;-73
2022/11/02 08:19:38;;;;;;;15.38;2.53;;;12.80;99.90;;;;;;4982179;28;20039;-78
2022/11/02 08:22:03;;;;;;;12.88;2.15;;;12.80;99.90;;;;;;4985629;28;20035;-75
2022/11/02 08:24:29;;;;;;;11.73;1.80;;;12.80;99.90;;;;;;4985491;28;20027;-77
2022/11/02 08:26:55;;;;;;;14.32;1.98;;;12.70;99.90;;;;;;4985252;28;20039;-76
2022/11/02 08:29:20;;;;;;;14.98;2.50;;;12.70;99.90;;;;;;4964443;28;20045;-72
2022/11/02 08:31:47;;;;;;;10.77;2.55;;;12.80;99.90;;;;;;4983368;28;20027;-76
2022/11/02 08:34:12;;;;;;;10.50;1.92;;;12.80;99.90;;;;;;4983167;28;20372;-75
2022/11/02 08:36:38;;;;;;;12.68;1.90;;;12.80;99.90;;;;;;4966509;28;20050;-74
2022/11/02 08:39:03;;;;;;;12.45;2.05;;;12.80;99.90;;;;;;4984002;28;20062;-76
2022/11/02 08:41:29;;;;;;;15.23;2.03;;;12.90;99.90;;;;;;4990446;28;20034;-72
2022/11/02 08:43:56;;;;;;;10.95;1.90;;;13.00;99.90;;;;;;4971062;28;20187;-76
2022/11/02 08:46:22;;;;;;;9.95;1.88;;;13.10;99.90;;;;;;4984687;28;20054;-76
2022/11/02 08:48:47;;;;;;;19.35;2.60;;;13.20;99.90;;;;;;4984800;28;20035;-72
2022/11/02 08:51:13;;;;;;;6.72;1.63;;;13.30;99.90;;;;;;4979872;28;20039;-75
2022/11/02 08:53:39;;;;;;;11.68;1.90;;;13.30;99.90;;;;;;4984432;28;20058;-76
2022/11/02 08:56:05;;;;;;;13.90;1.92;;;13.30;99.90;;;;;;4966153;28;20053;-74
2022/11/02 08:58:31;;;;;;;10.32;2.05;;;13.20;99.90;;;;;;4975411;28;20043;-75
2022/11/02 09:00:57;;;;;;;14.70;2.60;;;13.10;99.90;;;;;;4979590;28;20038;-76
2022/11/02 09:03:23;;;;;;;7.10;2.13;;;13.10;99.90;;;;;;4983655;28;20031;-76
2022/11/02 09:05:54;;;;;;;20.23;2.10;;;13.00;99.90;;;;;;4993967;28;20062;-74
2022/11/02 09:08:20;;;;;;;5.53;1.80;;;12.90;99.90;;;;;;4967450;28;20037;-76
2022/11/02 09:10:49;;;;;;;8.82;2.03;;;12.90;99.90;;;;;;4984082;28;20039;-76
2022/11/02 09:13:19;;;;;;;8.85;2.35;;;12.90;99.90;;;;;;4984811;28;20431;-77
2022/11/02 09:15:48;;;;;;;14.75;2.25;;;12.80;99.90;;;;;;4982717;28;20095;-74
2022/11/02 09:18:14;;;;;;;13.98;2.50;;;12.80;99.90;;;;;;4972232;28;20098;-78
2022/11/02 09:20:40;;;;;;;11.32;1.98;;;12.80;99.90;;;;;;4984984;28;20058;-77
2022/11/02 09:23:05;;;;;;;10.35;2.30;;;12.80;99.90;;;;;;4984914;28;20483;-75
2022/11/02 09:25:31;;;;;;;9.60;2.03;;;12.70;99.90;;;;;;4965355;28;20055;-76
2022/11/02 09:28:00;;;;;;;10.82;2.03;;;12.70;99.90;;;;;;4988537;28;20038;-76
2022/11/02 09:30:27;;;;;;;11.63;2.28;;;12.70;99.90;;;;;;4987961;28;20035;-76
2022/11/02 09:33:02;;;;;;;11.20;1.80;;;12.60;99.90;;;;;;4988598;28;20033;-70
2022/11/02 09:35:33;;;;;;;10.88;1.83;;;12.50;99.90;;;;;;4986819;28;20039;-72
2022/11/02 09:37:59;;;;;;;8.00;1.92;;;12.50;99.90;;;;;;4988770;28;20031;-74
2022/11/02 09:40:28;;;;;;;15.50;2.55;;;12.50;99.90;;;;;;4970605;28;20162;-77
2022/11/02 09:43:03;;;;;;;9.63;2.13;;;12.50;99.90;;;;;;4987417;28;20038;-80
2022/11/02 09:45:34;;;;;;;7.13;1.88;;;12.50;99.90;;;;;;4969005;28;20026;-75
2022/11/02 09:48:17;;;;;;;11.65;2.15;;;12.50;99.90;;;;;;4986668;28;20059;-78
2022/11/02 09:50:57;;;;;;;7.45;1.50;;;12.60;99.90;;;;;;4970508;28;20059;-75
2022/11/02 09:53:32;;;;;;;6.72;1.65;;;12.60;99.90;;;;;;4969877;28;20039;-75
2022/11/02 09:55:59;;;;;;;;;;;13.00;99.90;;;;;;4987479;28;20043;-77
2022/11/02 09:58:32;;;;;;;11.43;1.60;;;13.10;99.90;;;;;;4968058;28;19910;-72
2022/11/02 10:01:19;;;;;;;8.25;1.50;;;13.20;99.90;;;;;;4969479;28;20051;-75
2022/11/02 10:03:56;;;;;;;10.70;2.63;;;13.30;99.90;;;;;;4976985;28;20031;-80
2022/11/02 10:06:24;;;;;;;11.23;1.98;;;13.30;99.90;;;;;;4984238;28;20054;-75
2022/11/02 10:09:15;;;;;;;7.75;1.50;;;13.20;99.90;;;;;;4983850;28;20099;-76
2022/11/02 10:12:00;;;;;;;4.97;1.50;;;13.20;99.90;;;;;;4980858;28;20061;-76
2022/11/02 10:14:28;;;;;;;;;;;13.30;99.90;;;;;;4986711;28;20498;-77
2022/11/02 10:17:21;;;;;;;4.72;1.27;;;13.40;99.90;;;;;;4966658;28;19961;-72
2022/11/02 10:19:53;;;;;;;8.55;1.73;;;13.60;99.90;;;;;;4970584;28;20026;-75
2022/11/02 10:22:23;;;;;;;10.55;1.52;;;13.70;99.90;;;;;;4965656;28;20042;-76
2022/11/02 10:24:52;;;;;;;9.07;1.67;;;13.70;99.90;;;;;;4978195;28;20030;-77
2022/11/02 10:27:27;;;;;;;7.10;1.17;;;13.80;99.90;;;;;;4986052;28;20030;-75
2022/11/02 10:30:13;;;;;;;9.35;1.50;;;14.00;99.90;;;;;;4987238;28;20029;-73
2022/11/02 10:32:40;;;;;;;8.90;1.58;;;14.10;99.90;;;;;;4969838;28;20138;-72
2022/11/02 10:35:17;;;;;;;8.05;1.48;;;14.10;99.90;;;;;;4987825;28;20058;-77
2022/11/02 10:38:15;;;;;;;9.85;1.85;;;14.00;99.90;;;;;;4985004;28;20022;-76
2022/11/02 10:40:54;;;;;;;7.40;1.30;;;13.90;99.90;;;;;;4969397;28;20466;-73
2022/11/02 10:43:33;;;;;;;4.80;1.55;;;13.80;99.90;;;;;;4986074;28;20026;-73
2022/11/02 10:46:05;;;;;;;9.27;1.52;;;13.70;99.90;;;;;;4986112;28;20041;-73
2022/11/02 10:49:05;;;;;;;10.32;1.50;;;13.60;99.90;;;;;;4970258;28;20026;-73
2022/11/02 10:51:31;;;;;;;7.57;1.77;;;13.50;99.90;;;;;;4942494;28;20039;-76
2022/11/02 10:53:57;;;;;;;10.38;1.88;;;13.40;99.90;;;;;;4968374;28;20591;-77
2022/11/02 10:56:29;;;;;;;8.32;1.27;;;13.30;99.90;;;;;;4968272;28;20043;-73
2022/11/02 10:58:58;;;;;;;8.52;1.60;;;13.30;99.90;;;;;;4985419;28;20051;-74
2022/11/02 11:01:24;;;;;;;13.60;1.83;;;13.20;99.90;;;;;;4983613;28;20031;-79
2022/11/02 11:04:03;;;;;;;13.10;1.80;;;13.20;99.90;;;;;;4983339;28;20846;-73
2022/11/02 11:06:42;;;;;;;5.72;1.67;;;13.20;99.90;;;;;;4964270;28;20071;-74
2022/11/02 11:09:15;;;;;;;4.72;1.42;;;13.20;99.90;;;;;;4963509;28;20035;-72
2022/11/02 11:11:57;;;;;;;6.60;1.17;;;13.20;99.90;;;;;;4982387;28;20629;-77
2022/11/02 11:14:25;;;;;;;12.38;1.40;;;13.30;99.90;;;;;;4963013;28;20031;-72
2022/11/02 11:16:59;;;;;;;7.40;1.15;;;13.40;99.90;;;;;;4975406;28;20027;-76
2022/11/02 11:19:35;;;;;;;8.57;1.40;;;13.50;99.90;;;;;;4975819;28;20466;-73
2022/11/02 11:22:02;;;;;;;10.93;1.73;;;13.70;99.90;;;;;;4986803;28;20023;-74
2022/11/02 11:24:30;;;;;;;7.10;1.38;;;14.00;99.90;;;;;;4985760;28;20475;-79
2022/11/02 11:27:17;;;;;;;3.72;0.90;;;14.10;99.90;;;;;;4986040;28;20038;-76
2022/11/02 11:29:53;;;;;;;7.40;1.25;;;14.10;99.90;;;;;;4967606;28;20454;-77
2022/11/02 11:32:21;;;;;;;7.93;1.60;;;14.00;99.90;;;;;;4966031;28;20446;-80
2022/11/02 11:34:55;;;;;;;13.82;1.70;;;14.00;99.90;;;;;;4967193;28;20074;-75
2022/11/02 11:37:22;;;;;;;5.72;1.25;;;14.00;99.90;;;;;;4986132;28;20035;-75
2022/11/02 11:39:58;;;;;;;8.70;1.30;;;14.20;99.90;;;;;;4983460;28;20027;-80
2022/11/02 11:42:28;;;;;;;9.82;1.85;;;14.70;99.90;;;;;;4967650;28;20030;-76
2022/11/02 11:45:03;;;;;;;5.32;1.40;;;15.30;99.90;;;;;;4965849;28;20050;-75
2022/11/02 11:47:33;;;;;;;8.73;1.80;;;15.20;99.90;;;;;;4984887;28;20058;-80
2022/11/02 11:50:02;;;;;;;9.70;1.50;;;15.10;99.90;;;;;;4972713;28;20035;-73
2022/11/02 11:52:30;;;;;;;7.25;1.20;;;14.90;99.90;;;;;;4984751;28;20049;-76
2022/11/02 11:55:01;;;;;;;9.70;1.35;;;14.60;99.90;;;;;;4968601;28;20057;-79
2022/11/02 11:57:32;;;;;;;6.32;1.48;;;14.50;99.90;;;;;;4968873;28;20041;-73
2022/11/02 12:00:00;;;;;;;4.60;1.25;;;14.40;99.90;;;;;;4985652;28;20046;-73
2022/11/02 12:02:34;;;;;;;9.25;1.58;;;14.20;99.90;;;;;;4983836;28;20489;-75
2022/11/02 12:05:15;;;;;;;6.40;1.70;;;14.10;99.90;;;;;;4963851;28;20031;-76
2022/11/02 12:08:14;;;;;;;7.00;1.10;;;13.90;99.90;;;;;;4979112;28;20121;-75
2022/11/02 12:11:18;;;;;;;11.73;1.95;;;13.90;99.90;;;;;;4981666;28;20057;-77
2022/11/02 12:13:56;;;;;;;6.47;1.50;;;13.90;99.90;;;;;;4923255;29;20032;-81
2022/11/02 12:16:31;;;;;;;10.07;1.83;;;14.00;99.90;;;;;;4965128;28;20057;-73
2022/11/02 12:19:12;;;;;;;4.38;0.77;;;14.40;99.90;;;;;;4982658;28;20042;-72
2022/11/02 12:21:46;;;;;;;8.20;1.30;;;14.90;99.90;;;;;;4979340;28;20026;-77
2022/11/02 12:24:27;;;;;;;4.25;1.25;;;15.20;99.90;;;;;;4981461;28;20038;-74
2022/11/02 12:27:01;;;;;;;6.00;1.23;;;15.40;99.90;;;;;;4980932;28;20031;-73
2022/11/02 12:30:09;;;;;;;9.73;1.10;;;15.30;99.90;;;;;;4980056;28;20042;-77
2022/11/02 12:32:40;;;;;;;12.18;1.52;;;15.00;99.90;;;;;;4959184;28;20110;-75
2022/11/02 12:35:20;;;;;;;6.50;1.23;;;14.60;99.90;;;;;;4967633;28;20042;-76
2022/11/02 12:37:49;;;;;;;6.55;1.50;;;14.40;99.90;;;;;;4969881;28;20031;-75
2022/11/02 12:40:42;;;;;;;10.23;1.63;;;14.50;99.90;;;;;;4981574;28;20087;-77
2022/11/02 12:43:32;;;;;;;13.35;1.65;;;14.70;99.90;;;;;;4983261;28;20110;-75
2022/11/02 12:46:06;;;;;;;3.72;1.08;;;14.80;99.90;;;;;;4961731;28;20041;-78
2022/11/02 12:48:32;;;;;;;7.20;1.65;;;15.10;99.90;;;;;;4957163;28;20030;-73
2022/11/02 12:51:13;;;;;;;8.48;1.25;;;15.10;99.90;;;;;;4975117;28;20043;-75
2022/11/02 12:53:56;;;;;;;12.85;1.63;;;15.10;99.90;;;;;;4971923;28;20042;-75
2022/11/02 12:56:37;;;;;;;7.68;1.73;;;15.20;99.90;;;;;;4977801;28;20043;-80
2022/11/02 12:59:03;;;;;;;6.55;1.20;;;15.50;99.90;;;;;;4981141;28;20050;-75
2022/11/02 13:01:41;;;;;;;7.57;1.45;;;15.90;99.90;;;;;;4988832;28;20038;-77
2022/11/02 13:04:16;;;;;;;7.40;1.30;;;16.10;99.90;;;;;;4990175;28;20090;-76
2022/11/02 13:06:50;;;;;;;5.10;1.20;;;15.70;99.90;;;;;;4975096;28;20022;-76
2022/11/02 13:09:28;;;;;;;5.10;1.40;;;15.40;99.90;;;;;;4973761;28;20026;-78
2022/11/02 13:12:04;;;;;;;6.35;1.20;;;15.10;99.90;;;;;;4989768;28;20106;-74